N172AW KBVY-KACK
Flight info
| Callsign | N172AW |
|---|---|
| Flight time | 0h 44m |
| Altitude | VFR |
| Route | VFR FF |
| Aircraft | C172/L-VGD/C |
Departure
| Time | 2026-04-26 01:34 |
|---|---|
| Airport | Beverly Regional Airport (KBVY) |
Arrival
| Time | 2026-04-26 02:18 |
|---|---|
| Airport | Nantucket Memorial Airport (KACK) |
| Time | Latitude | Longitude | Altitude | Speed | Heading |
|---|---|---|---|---|---|
| 2026-04-26 01:26 | 42.58497 | -70.91178 | 92 ft | 0 kts | 170° |
| 2026-04-26 01:30 | 42.58488 | -70.91181 | 94 ft | 8 kts | 223° |
| 2026-04-26 01:30 | 42.58484 | -70.91235 | 93 ft | 0 kts | 281° |
| 2026-04-26 01:31 | 42.58419 | -70.91209 | 95 ft | 22 kts | 154° |
| 2026-04-26 01:31 | 42.58308 | -70.91000 | 98 ft | 29 kts | 92° |
| 2026-04-26 01:31 | 42.58358 | -70.90807 | 98 ft | 11 kts | 85° |
| 2026-04-26 01:31 | 42.58350 | -70.90793 | 100 ft | 0 kts | 177° |
| 2026-04-26 01:32 | 42.58295 | -70.90933 | 100 ft | 42 kts | 255° |
| 2026-04-26 01:33 | 42.58170 | -70.91503 | 149 ft | 76 kts | 249° |
| 2026-04-26 01:33 | 42.57972 | -70.92165 | 387 ft | 74 kts | 227° |
| 2026-04-26 01:33 | 42.57516 | -70.92153 | 552 ft | 75 kts | 141° |
| 2026-04-26 01:33 | 42.57079 | -70.91676 | 668 ft | 95 kts | 150° |
| 2026-04-26 01:34 | 42.56512 | -70.91077 | 663 ft | 113 kts | 140° |
| 2026-04-26 01:34 | 42.55974 | -70.90320 | 853 ft | 108 kts | 139° |
| 2026-04-26 01:34 | 42.55468 | -70.89641 | 1178 ft | 96 kts | 136° |
| 2026-04-26 01:34 | 42.54986 | -70.88923 | 1255 ft | 111 kts | 134° |
| 2026-04-26 01:35 | 42.54453 | -70.88147 | 1372 ft | 113 kts | 135° |
| 2026-04-26 01:35 | 42.53832 | -70.87495 | 1504 ft | 114 kts | 151° |
| 2026-04-26 01:35 | 42.53139 | -70.86952 | 1635 ft | 116 kts | 149° |
| 2026-04-26 01:35 | 42.52425 | -70.86400 | 1647 ft | 123 kts | 150° |
| 2026-04-26 01:36 | 42.51675 | -70.85816 | 1650 ft | 125 kts | 149° |
| 2026-04-26 01:36 | 42.50915 | -70.85232 | 1652 ft | 126 kts | 152° |
| 2026-04-26 01:36 | 42.50123 | -70.84722 | 1651 ft | 126 kts | 153° |
| 2026-04-26 01:37 | 42.48539 | -70.83701 | 1650 ft | 126 kts | 153° |
| 2026-04-26 01:37 | 42.47746 | -70.83188 | 1647 ft | 126 kts | 153° |
| 2026-04-26 01:37 | 42.46953 | -70.82673 | 1647 ft | 127 kts | 153° |
| 2026-04-26 01:37 | 42.46158 | -70.82157 | 1647 ft | 127 kts | 153° |
| 2026-04-26 01:38 | 42.45372 | -70.81646 | 1645 ft | 127 kts | 153° |
| 2026-04-26 01:38 | 42.44566 | -70.81121 | 1644 ft | 127 kts | 154° |
| 2026-04-26 01:38 | 42.43785 | -70.80601 | 1644 ft | 127 kts | 153° |
| 2026-04-26 01:38 | 42.42990 | -70.80073 | 1643 ft | 127 kts | 153° |
| 2026-04-26 01:39 | 42.42197 | -70.79554 | 1642 ft | 127 kts | 154° |
| 2026-04-26 01:39 | 42.41407 | -70.79025 | 1641 ft | 127 kts | 153° |
| 2026-04-26 01:39 | 42.40630 | -70.78504 | 1635 ft | 122 kts | 153° |
| 2026-04-26 01:39 | 42.39879 | -70.78005 | 1630 ft | 119 kts | 153° |
| 2026-04-26 01:40 | 42.39146 | -70.77511 | 1631 ft | 117 kts | 153° |
| 2026-04-26 01:40 | 42.38422 | -70.77014 | 1632 ft | 116 kts | 153° |
| 2026-04-26 01:40 | 42.37725 | -70.76494 | 1630 ft | 116 kts | 153° |
| 2026-04-26 01:40 | 42.37023 | -70.75966 | 1632 ft | 115 kts | 153° |
| 2026-04-26 01:41 | 42.36323 | -70.75442 | 1631 ft | 115 kts | 153° |
| 2026-04-26 01:41 | 42.35625 | -70.74918 | 1630 ft | 115 kts | 153° |
| 2026-04-26 01:41 | 42.34925 | -70.74394 | 1629 ft | 115 kts | 153° |
| 2026-04-26 01:41 | 42.34220 | -70.73874 | 1631 ft | 115 kts | 153° |
| 2026-04-26 01:42 | 42.33518 | -70.73349 | 1630 ft | 115 kts | 153° |
| 2026-04-26 01:42 | 42.32819 | -70.72823 | 1630 ft | 115 kts | 153° |
| 2026-04-26 01:42 | 42.32118 | -70.72296 | 1629 ft | 115 kts | 153° |
| 2026-04-26 01:42 | 42.31417 | -70.71766 | 1630 ft | 115 kts | 153° |
| 2026-04-26 01:43 | 42.30717 | -70.71237 | 1634 ft | 115 kts | 153° |
| 2026-04-26 01:43 | 42.30017 | -70.70709 | 1631 ft | 115 kts | 153° |
| 2026-04-26 01:43 | 42.29326 | -70.70188 | 1631 ft | 115 kts | 153° |
| 2026-04-26 01:43 | 42.28626 | -70.69659 | 1631 ft | 116 kts | 153° |
| 2026-04-26 01:44 | 42.27921 | -70.69135 | 1628 ft | 116 kts | 153° |
| 2026-04-26 01:44 | 42.27216 | -70.68614 | 1627 ft | 115 kts | 153° |
| 2026-04-26 01:44 | 42.26500 | -70.68125 | 1628 ft | 115 kts | 157° |
| 2026-04-26 01:44 | 42.25771 | -70.67670 | 1628 ft | 115 kts | 157° |
| 2026-04-26 01:45 | 42.25042 | -70.67215 | 1626 ft | 115 kts | 157° |
| 2026-04-26 01:45 | 42.24315 | -70.66759 | 1626 ft | 115 kts | 156° |
| 2026-04-26 01:45 | 42.23589 | -70.66302 | 1627 ft | 115 kts | 156° |
| 2026-04-26 01:45 | 42.22861 | -70.65842 | 1626 ft | 116 kts | 156° |
| 2026-04-26 01:46 | 42.22146 | -70.65387 | 1629 ft | 115 kts | 156° |
| 2026-04-26 01:46 | 42.21419 | -70.64927 | 1627 ft | 115 kts | 156° |
| 2026-04-26 01:46 | 42.20692 | -70.64467 | 1627 ft | 116 kts | 156° |
| 2026-04-26 01:46 | 42.19964 | -70.64007 | 1627 ft | 115 kts | 156° |
| 2026-04-26 01:47 | 42.19238 | -70.63545 | 1626 ft | 115 kts | 156° |
| 2026-04-26 01:47 | 42.18515 | -70.63083 | 1650 ft | 115 kts | 156° |
| 2026-04-26 01:47 | 42.17795 | -70.62618 | 1649 ft | 115 kts | 156° |
| 2026-04-26 01:47 | 42.17071 | -70.62157 | 1649 ft | 115 kts | 156° |
| 2026-04-26 01:48 | 42.16347 | -70.61697 | 1650 ft | 115 kts | 157° |
| 2026-04-26 01:48 | 42.15629 | -70.61222 | 1650 ft | 115 kts | 156° |
| 2026-04-26 01:48 | 42.14923 | -70.60748 | 1733 ft | 111 kts | 156° |
| 2026-04-26 01:48 | 42.14233 | -70.60282 | 1862 ft | 113 kts | 156° |
| 2026-04-26 01:49 | 42.13523 | -70.59804 | 1990 ft | 115 kts | 156° |
| 2026-04-26 01:49 | 42.12805 | -70.59327 | 2127 ft | 115 kts | 156° |
| 2026-04-26 01:49 | 42.12079 | -70.58854 | 2256 ft | 116 kts | 156° |
| 2026-04-26 01:49 | 42.11347 | -70.58385 | 2395 ft | 117 kts | 155° |
| 2026-04-26 01:50 | 42.10607 | -70.57921 | 2522 ft | 118 kts | 156° |
| 2026-04-26 01:50 | 42.09860 | -70.57465 | 2654 ft | 118 kts | 155° |
| 2026-04-26 01:50 | 42.09106 | -70.57015 | 2788 ft | 119 kts | 156° |
| 2026-04-26 01:50 | 42.08346 | -70.56566 | 2912 ft | 120 kts | 156° |
| 2026-04-26 01:51 | 42.07590 | -70.56125 | 3036 ft | 120 kts | 156° |
| 2026-04-26 01:51 | 42.06819 | -70.55684 | 3166 ft | 121 kts | 155° |
| 2026-04-26 01:51 | 42.06042 | -70.55245 | 3295 ft | 121 kts | 155° |
| 2026-04-26 01:51 | 42.05259 | -70.54810 | 3425 ft | 122 kts | 156° |
| 2026-04-26 01:52 | 42.04472 | -70.54378 | 3556 ft | 122 kts | 156° |
| 2026-04-26 01:52 | 42.03685 | -70.53947 | 3688 ft | 122 kts | 156° |
| 2026-04-26 01:52 | 42.02910 | -70.53506 | 3817 ft | 121 kts | 156° |
| 2026-04-26 01:52 | 42.02138 | -70.53069 | 3949 ft | 120 kts | 155° |
| 2026-04-26 01:53 | 42.01370 | -70.52638 | 4071 ft | 119 kts | 155° |
| 2026-04-26 01:53 | 42.00597 | -70.52208 | 4162 ft | 121 kts | 155° |
| 2026-04-26 01:53 | 41.99822 | -70.51776 | 4282 ft | 120 kts | 155° |
| 2026-04-26 01:53 | 41.99057 | -70.51355 | 4411 ft | 118 kts | 155° |
| 2026-04-26 01:54 | 41.98309 | -70.50945 | 4538 ft | 117 kts | 155° |
| 2026-04-26 01:54 | 41.97558 | -70.50538 | 4667 ft | 116 kts | 155° |
| 2026-04-26 01:54 | 41.96811 | -70.50137 | 4789 ft | 115 kts | 155° |
| 2026-04-26 01:54 | 41.96082 | -70.49703 | 4920 ft | 114 kts | 152° |
| 2026-04-26 01:55 | 41.95364 | -70.49264 | 5046 ft | 113 kts | 152° |
| 2026-04-26 01:55 | 41.94652 | -70.48829 | 5170 ft | 112 kts | 152° |
| 2026-04-26 01:55 | 41.93946 | -70.48394 | 5295 ft | 111 kts | 152° |
| 2026-04-26 01:55 | 41.93251 | -70.47957 | 5421 ft | 110 kts | 152° |
| 2026-04-26 01:56 | 41.92563 | -70.47518 | 5548 ft | 109 kts | 152° |
| 2026-04-26 01:56 | 41.91879 | -70.47076 | 5640 ft | 111 kts | 152° |
| 2026-04-26 01:56 | 41.91171 | -70.46615 | 5653 ft | 117 kts | 152° |
| 2026-04-26 01:56 | 41.90423 | -70.46126 | 5650 ft | 121 kts | 152° |
| 2026-04-26 01:57 | 41.89660 | -70.45622 | 5649 ft | 123 kts | 152° |
| 2026-04-26 01:57 | 41.88889 | -70.45112 | 5649 ft | 124 kts | 152° |
| 2026-04-26 01:57 | 41.88112 | -70.44607 | 5650 ft | 124 kts | 153° |
| 2026-04-26 01:57 | 41.87333 | -70.44093 | 5646 ft | 125 kts | 152° |
| 2026-04-26 01:58 | 41.86555 | -70.43575 | 5653 ft | 125 kts | 152° |
| 2026-04-26 01:58 | 41.85775 | -70.43054 | 5653 ft | 125 kts | 152° |
| 2026-04-26 01:58 | 41.84996 | -70.42534 | 5654 ft | 125 kts | 153° |
| 2026-04-26 01:58 | 41.84199 | -70.42061 | 5654 ft | 125 kts | 155° |
| 2026-04-26 01:59 | 41.83401 | -70.41595 | 5655 ft | 125 kts | 155° |
| 2026-04-26 01:59 | 41.82605 | -70.41130 | 5655 ft | 125 kts | 155° |
| 2026-04-26 01:59 | 41.81808 | -70.40664 | 5655 ft | 125 kts | 155° |
| 2026-04-26 01:59 | 41.81012 | -70.40201 | 5656 ft | 125 kts | 155° |
| 2026-04-26 02:00 | 41.80219 | -70.39739 | 5589 ft | 129 kts | 155° |
| 2026-04-26 02:00 | 41.79382 | -70.39254 | 5511 ft | 130 kts | 155° |
| 2026-04-26 02:00 | 41.78560 | -70.38778 | 5509 ft | 128 kts | 155° |
| 2026-04-26 02:00 | 41.77750 | -70.38310 | 5507 ft | 127 kts | 155° |
| 2026-04-26 02:01 | 41.76944 | -70.37843 | 5510 ft | 126 kts | 155° |
| 2026-04-26 02:01 | 41.76140 | -70.37376 | 5510 ft | 126 kts | 155° |
| 2026-04-26 02:01 | 41.75336 | -70.36909 | 5509 ft | 126 kts | 155° |
| 2026-04-26 02:01 | 41.74535 | -70.36444 | 5509 ft | 126 kts | 154° |
| 2026-04-26 02:02 | 41.73733 | -70.35977 | 5524 ft | 126 kts | 154° |
| 2026-04-26 02:02 | 41.72931 | -70.35509 | 5525 ft | 126 kts | 154° |
| 2026-04-26 02:02 | 41.72130 | -70.35041 | 5524 ft | 126 kts | 155° |
| 2026-04-26 02:02 | 41.71330 | -70.34571 | 5523 ft | 125 kts | 155° |
| 2026-04-26 02:03 | 41.70541 | -70.34106 | 5522 ft | 126 kts | 154° |
| 2026-04-26 02:03 | 41.69743 | -70.33635 | 5522 ft | 125 kts | 154° |
| 2026-04-26 02:03 | 41.68947 | -70.33159 | 5521 ft | 125 kts | 154° |
| 2026-04-26 02:03 | 41.68154 | -70.32676 | 5520 ft | 125 kts | 154° |
| 2026-04-26 02:04 | 41.67357 | -70.32203 | 5520 ft | 125 kts | 154° |
| 2026-04-26 02:04 | 41.66562 | -70.31733 | 5519 ft | 125 kts | 154° |
| 2026-04-26 02:04 | 41.65769 | -70.31258 | 5517 ft | 125 kts | 155° |
| 2026-04-26 02:04 | 41.64979 | -70.30768 | 5499 ft | 125 kts | 154° |
| 2026-04-26 02:05 | 41.64186 | -70.30283 | 5498 ft | 125 kts | 154° |
| 2026-04-26 02:05 | 41.63407 | -70.29800 | 5498 ft | 125 kts | 154° |
| 2026-04-26 02:05 | 41.62618 | -70.29317 | 5498 ft | 125 kts | 154° |
| 2026-04-26 02:05 | 41.61825 | -70.28842 | 5497 ft | 125 kts | 155° |
| 2026-04-26 02:06 | 41.61035 | -70.28365 | 5498 ft | 124 kts | 154° |
| 2026-04-26 02:06 | 41.60246 | -70.27894 | 5496 ft | 124 kts | 154° |
| 2026-04-26 02:06 | 41.59462 | -70.27413 | 5495 ft | 124 kts | 154° |
| 2026-04-26 02:06 | 41.58680 | -70.26924 | 5495 ft | 124 kts | 154° |
| 2026-04-26 02:07 | 41.57895 | -70.26439 | 5495 ft | 124 kts | 154° |
| 2026-04-26 02:07 | 41.57111 | -70.25961 | 5493 ft | 124 kts | 154° |
| 2026-04-26 02:07 | 41.56328 | -70.25471 | 5493 ft | 124 kts | 154° |
| 2026-04-26 02:07 | 41.55555 | -70.24987 | 5493 ft | 124 kts | 154° |
| 2026-04-26 02:08 | 41.54773 | -70.24495 | 5492 ft | 124 kts | 154° |
| 2026-04-26 02:08 | 41.54008 | -70.23955 | 5490 ft | 124 kts | 150° |
| 2026-04-26 02:08 | 41.53253 | -70.23391 | 5490 ft | 124 kts | 150° |
| 2026-04-26 02:08 | 41.52500 | -70.22825 | 5489 ft | 124 kts | 150° |
| 2026-04-26 02:09 | 41.51749 | -70.22259 | 5491 ft | 124 kts | 150° |
| 2026-04-26 02:09 | 41.50997 | -70.21691 | 5491 ft | 124 kts | 150° |
| 2026-04-26 02:09 | 41.50245 | -70.21122 | 5491 ft | 124 kts | 149° |
| 2026-04-26 02:09 | 41.49493 | -70.20553 | 5490 ft | 124 kts | 149° |
| 2026-04-26 02:10 | 41.48741 | -70.19981 | 5489 ft | 125 kts | 150° |
| 2026-04-26 02:10 | 41.48004 | -70.19404 | 5496 ft | 125 kts | 150° |
| 2026-04-26 02:10 | 41.47258 | -70.18817 | 5498 ft | 125 kts | 149° |
| 2026-04-26 02:10 | 41.46510 | -70.18231 | 5499 ft | 125 kts | 149° |
| 2026-04-26 02:11 | 41.45758 | -70.17656 | 5500 ft | 125 kts | 152° |
| 2026-04-26 02:11 | 41.44995 | -70.17105 | 5500 ft | 125 kts | 152° |
| 2026-04-26 02:11 | 41.44232 | -70.16553 | 5501 ft | 125 kts | 152° |
| 2026-04-26 02:11 | 41.43470 | -70.16000 | 5502 ft | 125 kts | 152° |
| 2026-04-26 02:12 | 41.42708 | -70.15446 | 5505 ft | 125 kts | 152° |
| 2026-04-26 02:12 | 41.41952 | -70.14898 | 5522 ft | 124 kts | 151° |
| 2026-04-26 02:12 | 41.41192 | -70.14348 | 5520 ft | 124 kts | 151° |
| 2026-04-26 02:12 | 41.40437 | -70.13793 | 5322 ft | 129 kts | 151° |
| 2026-04-26 02:13 | 41.39650 | -70.13249 | 5182 ft | 124 kts | 154° |
| 2026-04-26 02:13 | 41.38883 | -70.12729 | 4990 ft | 126 kts | 148° |
| 2026-04-26 02:13 | 41.38129 | -70.12183 | 4826 ft | 122 kts | 152° |
| 2026-04-26 02:13 | 41.37350 | -70.11725 | 4588 ft | 123 kts | 158° |
| 2026-04-26 02:14 | 41.36574 | -70.11245 | 4347 ft | 124 kts | 148° |
| 2026-04-26 02:14 | 41.35861 | -70.10590 | 4097 ft | 124 kts | 140° |
| 2026-04-26 02:14 | 41.35186 | -70.09882 | 3890 ft | 124 kts | 139° |
| 2026-04-26 02:14 | 41.34492 | -70.09192 | 3668 ft | 125 kts | 143° |
| 2026-04-26 02:15 | 41.33748 | -70.08583 | 3462 ft | 125 kts | 147° |
| 2026-04-26 02:15 | 41.32997 | -70.07991 | 3246 ft | 125 kts | 145° |
| 2026-04-26 02:15 | 41.32274 | -70.07341 | 2983 ft | 126 kts | 142° |
| 2026-04-26 02:15 | 41.31577 | -70.06678 | 2750 ft | 125 kts | 143° |
| 2026-04-26 02:16 | 41.30865 | -70.06026 | 2518 ft | 124 kts | 144° |
| 2026-04-26 02:16 | 41.30147 | -70.05400 | 2250 ft | 125 kts | 147° |
| 2026-04-26 02:16 | 41.29396 | -70.04813 | 1965 ft | 125 kts | 150° |
| 2026-04-26 02:16 | 41.28630 | -70.04250 | 1630 ft | 127 kts | 150° |
| 2026-04-26 02:17 | 41.27832 | -70.03776 | 1188 ft | 125 kts | 165° |
| 2026-04-26 02:17 | 41.26950 | -70.03907 | 722 ft | 124 kts | 217° |
| 2026-04-26 02:17 | 41.26472 | -70.04820 | 332 ft | 116 kts | 231° |
| 2026-04-26 02:17 | 41.25970 | -70.05554 | 84 ft | 97 kts | 224° |
| 2026-04-26 02:18 | 41.25547 | -70.06107 | 41 ft | 73 kts | 227° |
| 2026-04-26 02:18 | 41.25241 | -70.06518 | 37 ft | 53 kts | 225° |
| 2026-04-26 02:18 | 41.25049 | -70.06778 | 37 ft | 33 kts | 226° |
| 2026-04-26 02:18 | 41.24906 | -70.06970 | 38 ft | 26 kts | 226° |
| 2026-04-26 02:19 | 41.24788 | -70.07129 | 38 ft | 22 kts | 225° |
| 2026-04-26 02:19 | 41.24737 | -70.07281 | 36 ft | 16 kts | 292° |
| 2026-04-26 02:19 | 41.24813 | -70.07303 | 37 ft | 13 kts | 45° |
| 2026-04-26 02:19 | 41.24865 | -70.07229 | 37 ft | 10 kts | 45° |
| 2026-04-26 02:20 | 41.24922 | -70.07154 | 38 ft | 19 kts | 46° |
| 2026-04-26 02:20 | 41.25006 | -70.07044 | 38 ft | 15 kts | 44° |
| 2026-04-26 02:20 | 41.25074 | -70.06956 | 38 ft | 13 kts | 46° |
| 2026-04-26 02:20 | 41.25163 | -70.06839 | 38 ft | 21 kts | 45° |
| 2026-04-26 02:21 | 41.25255 | -70.06718 | 38 ft | 16 kts | 43° |
| 2026-04-26 02:21 | 41.25330 | -70.06617 | 39 ft | 16 kts | 45° |
| 2026-04-26 02:21 | 41.25406 | -70.06518 | 39 ft | 15 kts | 44° |
| 2026-04-26 02:21 | 41.25482 | -70.06538 | 39 ft | 12 kts | 347° |
| 2026-04-26 02:22 | 41.25531 | -70.06479 | 39 ft | 9 kts | 47° |
| 2026-04-26 02:22 | 41.25581 | -70.06432 | 40 ft | 8 kts | 322° |
| 2026-04-26 02:22 | 41.25585 | -70.06437 | 40 ft | 0 kts | 315° |